createdAt,value
2022-10-19T00:01:31.357Z,103119.31
2022-10-19T00:03:58.885Z,103121.91
2022-10-19T00:06:28.642Z,103117.63
2022-10-19T00:09:01.325Z,103117.63
2022-10-19T00:11:28.939Z,103128.91
2022-10-19T00:13:57.001Z,103122.88
2022-10-19T00:16:28.902Z,103128.94
2022-10-19T00:19:00.510Z,103120.31
2022-10-19T00:21:27.774Z,103117.72
2022-10-19T00:23:54.212Z,103113.44
2022-10-19T00:26:20.642Z,103110.84
2022-10-19T00:28:47.453Z,103112.59
2022-10-19T00:31:16.604Z,103114.34
2022-10-19T00:33:49.306Z,103107.44
2022-10-19T00:36:23.225Z,103113.50
2022-10-19T00:38:50.191Z,103115.22
2022-10-19T00:41:17.768Z,103117.81
2022-10-19T00:44:28.728Z,103114.41
2022-10-19T00:46:59.756Z,103117.88
2022-10-19T00:49:29.868Z,103111.84
2022-10-19T00:52:01.580Z,103117.03
2022-10-19T00:54:28.864Z,103114.44
2022-10-19T00:56:57.841Z,103112.75
2022-10-19T00:59:25.581Z,103113.59
2022-10-19T01:01:53.260Z,103117.06
2022-10-19T01:04:25.261Z,103114.47
2022-10-19T01:06:53.571Z,103116.19
2022-10-19T01:09:20.690Z,103111.88
2022-10-19T01:12:03.839Z,103111.91
2022-10-19T01:14:52.158Z,103105.00
2022-10-19T01:17:43.465Z,103100.72
2022-10-19T01:20:33.175Z,103103.31
2022-10-19T01:23:17.093Z,103100.72
2022-10-19T01:25:49.705Z,103089.47
2022-10-19T01:28:57.816Z,103096.41
2022-10-19T01:31:44.638Z,103090.34
2022-10-19T01:34:36.878Z,103097.25
2022-10-19T01:37:25.889Z,103094.69
2022-10-19T01:40:15.430Z,103087.78
2022-10-19T01:42:47.870Z,103080.88
2022-10-19T01:45:21.744Z,103081.75
2022-10-19T01:47:55.396Z,103082.63
2022-10-19T01:50:39.418Z,103086.06
2022-10-19T01:53:08.600Z,103087.81
2022-10-19T01:55:39.175Z,103088.63
2022-10-19T01:58:09.732Z,103083.47
2022-10-19T02:00:41.032Z,103090.38
2022-10-19T02:03:09.930Z,103077.44
2022-10-19T02:05:38.124Z,103091.25
2022-10-19T02:08:12.071Z,103094.72
2022-10-19T02:10:42.743Z,103081.75
2022-10-19T02:13:10.189Z,103090.38
2022-10-19T02:15:40.762Z,103086.91
2022-10-19T02:18:10.188Z,103082.56
2022-10-19T02:20:37.233Z,103087.75
2022-10-19T02:23:05.505Z,103081.72
2022-10-19T02:25:33.078Z,103085.16
2022-10-19T02:28:02.114Z,103076.53
2022-10-19T02:30:28.825Z,103079.13
2022-10-19T02:32:55.328Z,103083.44
2022-10-19T02:35:22.938Z,103091.16
2022-10-19T02:37:49.578Z,103077.38
2022-10-19T02:40:16.279Z,103077.38
2022-10-19T02:42:52.411Z,103079.09
2022-10-19T02:45:24.040Z,103068.75
2022-10-19T02:48:02.069Z,103068.72
2022-10-19T02:50:29.110Z,103064.41
2022-10-19T02:52:55.486Z,103067.88
2022-10-19T02:55:21.891Z,103072.16
2022-10-19T02:57:48.249Z,103063.56
2022-10-19T03:00:14.847Z,103054.94
2022-10-19T03:02:41.256Z,103058.38
2022-10-19T03:05:09.037Z,103064.44
2022-10-19T03:07:36.251Z,103060.97
2022-10-19T03:10:03.224Z,103061.81
2022-10-19T03:12:29.634Z,103054.91
2022-10-19T03:14:56.059Z,103054.06
2022-10-19T03:17:22.516Z,103053.19
2022-10-19T03:19:48.939Z,103046.28
2022-10-19T03:22:15.503Z,103045.41
2022-10-19T03:24:41.895Z,103046.28
2022-10-19T03:27:08.578Z,103040.22
2022-10-19T03:29:35.040Z,103039.38
2022-10-19T03:32:01.480Z,103033.34
2022-10-19T03:34:27.876Z,103036.78
2022-10-19T03:36:54.344Z,103037.63
2022-10-19T03:39:20.760Z,103042.78
2022-10-19T03:41:47.281Z,103041.09
2022-10-19T03:44:13.772Z,103041.06
2022-10-19T03:46:40.653Z,103042.75
2022-10-19T03:49:07.739Z,103041.06
2022-10-19T03:51:34.718Z,103047.94
2022-10-19T03:54:07.045Z,103039.31
2022-10-19T03:56:35.336Z,103038.44
2022-10-19T03:59:03.856Z,103033.25
2022-10-19T04:01:31.820Z,103038.44
2022-10-19T04:04:01.241Z,103040.13
2022-10-19T04:06:30.143Z,103046.16
2022-10-19T04:08:57.101Z,103043.56
2022-10-19T04:11:29.804Z,103045.28
2022-10-19T04:13:57.907Z,103047.84
2022-10-19T04:16:25.858Z,103040.13
2022-10-19T04:18:52.465Z,103038.38
2022-10-19T04:21:30.775Z,103038.38
2022-10-19T04:24:05.868Z,103042.66
2022-10-19T04:26:33.684Z,103045.22
2022-10-19T04:29:01.120Z,103042.66
2022-10-19T04:31:28.457Z,103051.22
2022-10-19T04:33:55.160Z,103050.34
2022-10-19T04:36:21.851Z,103046.91
2022-10-19T04:38:48.384Z,103043.47
2022-10-19T04:41:17.815Z,103034.84
2022-10-19T04:43:45.306Z,103039.16
2022-10-19T04:46:15.436Z,103037.44
2022-10-19T04:48:42.896Z,103041.75
2022-10-19T04:51:10.651Z,103042.59
2022-10-19T04:53:38.682Z,103045.13
2022-10-19T04:56:08.539Z,103035.69
2022-10-19T04:58:35.504Z,103046.84
2022-10-19T05:01:19.065Z,103052.84
2022-10-19T05:03:46.255Z,103051.13
2022-10-19T05:06:13.695Z,103044.25
2022-10-19T05:08:40.142Z,103047.69
2022-10-19T05:11:14.453Z,103043.38
2022-10-19T05:13:41.904Z,103039.03
2022-10-19T05:16:15.297Z,103043.34
2022-10-19T05:18:42.368Z,103036.44
2022-10-19T05:21:11.188Z,103037.31
2022-10-19T05:23:38.459Z,103041.59
2022-10-19T05:26:08.903Z,103032.09
2022-10-19T05:28:35.887Z,103040.72
2022-10-19T05:31:06.694Z,103035.53
2022-10-19T05:33:34.072Z,103023.47
2022-10-19T05:36:29.571Z,103023.44
2022-10-19T05:38:57.777Z,103016.56
2022-10-19T05:41:26.003Z,103024.28
2022-10-19T05:43:54.872Z,103026.03
2022-10-19T05:46:21.675Z,103034.59
2022-10-19T05:48:48.572Z,103030.28
2022-10-19T05:51:18.683Z,103028.56
2022-10-19T05:53:45.689Z,103023.41
2022-10-19T05:56:17.788Z,103031.13
2022-10-19T05:58:44.288Z,103026.84
2022-10-19T06:01:11.191Z,103023.41
2022-10-19T06:03:37.597Z,103029.41
2022-10-19T06:06:05.853Z,103025.94
2022-10-19T06:08:32.664Z,103028.53
2022-10-19T06:11:14.084Z,103029.41
2022-10-19T06:13:41.797Z,103025.06
2022-10-19T06:16:09.822Z,103019.91
2022-10-19T06:18:36.832Z,103018.19
2022-10-19T06:21:08.917Z,103018.19
2022-10-19T06:23:35.782Z,103028.50
2022-10-19T06:26:04.589Z,103033.63
2022-10-19T06:28:31.117Z,103041.38
2022-10-19T06:30:58.872Z,103035.34
2022-10-19T06:33:26.901Z,103038.84
2022-10-19T06:35:53.644Z,103040.53
2022-10-19T06:38:20.315Z,103044.00
2022-10-19T06:40:47.086Z,103042.28
2022-10-19T06:43:13.479Z,103041.41
2022-10-19T06:45:40.372Z,103043.16
2022-10-19T06:48:07.902Z,103035.44
2022-10-19T06:50:35.357Z,103033.75
2022-10-19T06:53:01.868Z,103030.31
2022-10-19T06:55:28.457Z,103032.94
2022-10-19T06:57:54.861Z,103028.66
2022-10-19T07:00:21.316Z,103025.22
2022-10-19T07:02:47.805Z,103019.25
2022-10-19T07:05:14.339Z,103014.13
2022-10-19T07:07:40.787Z,103014.16
2022-10-19T07:10:07.525Z,103016.81
2022-10-19T07:12:33.965Z,103012.56
2022-10-19T07:15:00.357Z,103018.63
2022-10-19T07:17:26.785Z,103018.66
2022-10-19T07:19:53.290Z,103015.22
2022-10-19T07:22:23.272Z,103014.34
2022-10-19T07:24:54.604Z,103018.69
2022-10-19T07:27:21.039Z,103021.28
2022-10-19T07:29:47.482Z,103020.44
2022-10-19T07:32:13.918Z,103024.78
2022-10-19T07:34:40.307Z,103021.34
2022-10-19T07:37:06.771Z,103011.00
2022-10-19T07:39:33.286Z,103018.75
2022-10-19T07:41:59.700Z,103028.22
2022-10-19T07:44:26.381Z,103034.28
2022-10-19T07:46:52.801Z,103043.75
2022-10-19T07:49:19.997Z,103032.59
2022-10-19T07:51:47.112Z,103031.75
2022-10-19T07:54:13.686Z,103031.72
2022-10-19T07:56:40.462Z,103034.31
2022-10-19T07:59:07.031Z,103029.97
2022-10-19T08:01:38.362Z,103026.50
2022-10-19T08:06:51.340Z,103027.34
2022-10-19T08:09:40.116Z,103020.41
2022-10-19T08:12:05.784Z,103022.94
2022-10-19T08:14:32.565Z,103021.19
2022-10-19T08:16:59.038Z,103025.47
2022-10-19T08:19:25.514Z,103022.81
2022-10-19T08:21:52.141Z,103019.31
2022-10-19T08:24:19.886Z,103020.13
2022-10-19T08:26:46.718Z,103028.72
2022-10-19T08:29:15.890Z,103025.19
2022-10-19T08:31:43.842Z,103021.59
2022-10-19T08:34:10.642Z,103019.78
2022-10-19T08:36:37.214Z,103015.41
2022-10-19T08:39:05.944Z,103005.81
2022-10-19T08:41:32.426Z,103000.50
2022-10-19T08:44:20.265Z,103002.13
2022-10-19T08:47:00.521Z,103002.84
2022-10-19T08:49:31.761Z,102991.50
2022-10-19T08:52:00.707Z,102988.78
2022-10-19T08:54:54.314Z,102985.19
2022-10-19T08:57:34.757Z,102991.09
2022-10-19T09:00:18.865Z,102988.38
2022-10-19T09:03:11.981Z,102977.84
2022-10-19T09:05:47.816Z,102975.03
2022-10-19T09:08:17.795Z,102977.56
2022-10-19T09:10:48.744Z,102965.38
2022-10-19T09:13:36.419Z,102964.34
2022-10-19T09:16:17.470Z,102961.56
2022-10-19T09:18:46.874Z,102958.88
2022-10-19T09:21:34.449Z,102967.50
2022-10-19T09:24:24.774Z,102963.00
2022-10-19T09:26:54.401Z,102963.66
2022-10-19T09:29:27.859Z,102964.41
2022-10-19T09:35:02.621Z,102960.56
2022-10-19T09:37:31.167Z,102961.25
2022-10-19T09:39:57.664Z,102950.69
2022-10-19T09:42:30.123Z,102949.66
2022-10-19T09:44:58.537Z,102940.88
2022-10-19T09:47:34.597Z,102934.69
2022-10-19T09:50:26.970Z,102934.47
2022-10-19T09:52:56.584Z,102928.16
2022-10-19T09:55:22.940Z,102927.97
2022-10-19T09:57:58.368Z,102923.50
2022-10-19T10:00:32.181Z,102924.28
2022-10-19T10:02:58.713Z,102928.47
2022-10-19T10:05:34.464Z,102922.19
2022-10-19T10:08:01.526Z,102928.31
2022-10-19T10:10:39.216Z,102931.72
2022-10-19T10:13:06.132Z,102915.09
2022-10-19T10:15:43.325Z,102920.25
2022-10-19T10:18:15.558Z,102909.69
2022-10-19T10:21:05.868Z,102914.75
2022-10-19T10:23:36.263Z,102918.00
2022-10-19T10:26:04.717Z,102917.81
2022-10-19T10:28:31.617Z,102925.63
2022-10-19T10:31:08.828Z,102922.16
2022-10-19T10:33:44.645Z,102922.03
2022-10-19T10:36:12.336Z,102909.00
2022-10-19T10:38:51.740Z,102926.44
2022-10-19T10:41:23.263Z,102913.38
2022-10-19T10:44:04.531Z,102906.19
2022-10-19T10:47:02.519Z,102897.41
2022-10-19T10:49:35.139Z,102899.03
2022-10-19T10:52:06.496Z,102890.09
2022-10-19T10:54:33.498Z,102886.41
2022-10-19T10:57:05.589Z,102882.94
2022-10-19T10:59:44.720Z,102874.16
2022-10-19T11:02:42.307Z,102870.56
2022-10-19T11:05:19.496Z,102861.81
2022-10-19T11:07:50.472Z,102868.66
2022-10-19T11:10:24.307Z,102858.91
2022-10-19T11:13:07.130Z,102853.47
2022-10-19T11:16:06.669Z,102840.06
2022-10-19T11:18:46.067Z,102846.84
2022-10-19T11:21:20.217Z,102842.28
2022-10-19T11:24:17.546Z,102844.56
2022-10-19T11:27:22.077Z,102845.09
2022-10-19T11:30:04.180Z,102833.53
2022-10-19T11:32:35.872Z,102822.03
2022-10-19T11:35:25.785Z,102819.28
2022-10-19T11:38:18.323Z,102813.81
2022-10-19T11:41:17.882Z,102815.22
2022-10-19T11:44:01.563Z,102803.50
2022-10-19T11:46:49.120Z,102792.09
2022-10-19T11:49:54.587Z,102786.75
2022-10-19T11:52:34.639Z,102786.44
2022-10-19T11:55:04.700Z,102781.91
2022-10-19T11:57:38.203Z,102770.53
2022-10-19T12:00:27.338Z,102765.25
2022-10-19T12:03:19.614Z,102763.66
2022-10-19T12:06:01.227Z,102754.84
2022-10-19T12:08:51.189Z,102754.66
2022-10-19T12:11:27.547Z,102734.59
2022-10-19T12:13:59.479Z,102740.53
2022-10-19T12:16:38.154Z,102740.38
2022-10-19T12:19:06.562Z,102737.47
2022-10-19T12:21:43.179Z,102728.56
2022-10-19T12:24:15.802Z,102723.31
2022-10-19T12:26:44.411Z,102717.16
2022-10-19T12:29:26.916Z,102708.19
2022-10-19T12:31:56.070Z,102709.84
2022-10-19T12:35:13.880Z,102714.97
2022-10-19T12:38:05.522Z,102698.50
2022-10-19T12:40:53.997Z,102691.38
2022-10-19T12:43:33.989Z,102691.28
2022-10-19T12:46:00.410Z,102685.94
2022-10-19T12:48:26.840Z,102683.13
2022-10-19T12:50:53.948Z,102674.31
2022-10-19T12:53:32.439Z,102668.13
2022-10-19T12:56:07.171Z,102661.09
2022-10-19T12:58:43.622Z,102659.19
2022-10-19T13:01:34.480Z,102651.16
2022-10-19T13:04:09.062Z,102646.72
2022-10-19T13:06:39.496Z,102644.91
2022-10-19T13:09:09.100Z,102640.44
2022-10-19T13:11:38.297Z,102629.22
2022-10-19T13:14:20.095Z,102624.72
2022-10-19T13:16:57.177Z,102621.22
2022-10-19T13:19:23.816Z,102622.09
2022-10-19T13:21:51.445Z,102617.69
2022-10-19T13:24:23.910Z,102602.72
2022-10-19T13:27:02.476Z,102606.13
2022-10-19T13:29:41.206Z,102596.34
2022-10-19T13:32:36.435Z,102598.56
2022-10-19T13:35:21.577Z,102586.91
2022-10-19T13:38:10.262Z,102589.59
2022-10-19T13:40:39.205Z,102592.22
2022-10-19T13:43:05.643Z,102590.66
2022-10-19T13:45:32.169Z,102589.00
2022-10-19T13:48:14.595Z,102584.69
2022-10-19T13:50:47.968Z,102586.50
2022-10-19T13:53:23.573Z,102588.19
2022-10-19T13:56:22.413Z,102581.97
2022-10-19T13:59:24.742Z,102581.22
2022-10-19T14:01:54.284Z,102580.22
2022-10-19T14:04:50.486Z,102585.19
2022-10-19T14:07:25.333Z,102575.31
2022-10-19T14:10:32.655Z,102574.47
2022-10-19T14:13:00.542Z,102579.63
2022-10-19T14:15:32.200Z,102578.91
2022-10-19T14:18:02.387Z,102588.63
2022-10-19T14:20:38.289Z,102580.03
2022-10-19T14:23:23.914Z,102585.41
2022-10-19T14:25:53.156Z,102589.84
2022-10-19T14:28:21.922Z,102590.09
2022-10-19T14:31:00.498Z,102594.56
2022-10-19T14:33:30.189Z,102584.25
2022-10-19T14:35:57.010Z,102591.34
2022-10-19T14:38:27.841Z,102579.22
2022-10-19T14:40:55.797Z,102575.78
2022-10-19T14:43:25.807Z,102575.75
2022-10-19T14:46:10.873Z,102577.41
2022-10-19T14:48:48.966Z,102576.50
2022-10-19T14:51:30.854Z,102572.19
2022-10-19T14:54:08.137Z,102564.28
2022-10-19T14:56:58.545Z,102563.28
2022-10-19T14:59:29.948Z,102561.72
2022-10-19T15:02:00.127Z,102549.59
2022-10-19T15:04:31.570Z,102542.59
2022-10-19T15:07:01.030Z,102537.50
2022-10-19T15:09:37.460Z,102548.09
2022-10-19T15:12:17.070Z,102530.78
2022-10-19T15:14:45.343Z,102535.25
2022-10-19T15:17:30.076Z,102532.03
2022-10-19T15:20:00.811Z,102526.94
2022-10-19T15:22:30.571Z,102518.31
2022-10-19T15:25:06.208Z,102518.44
2022-10-19T15:27:45.565Z,102511.75
2022-10-19T15:30:17.907Z,102508.53
2022-10-19T15:33:08.304Z,102498.38
2022-10-19T15:35:37.426Z,102492.44
2022-10-19T15:38:22.737Z,102489.19
2022-10-19T15:40:49.670Z,102492.16
2022-10-19T15:43:34.436Z,102488.09
2022-10-19T15:46:03.839Z,102498.78
2022-10-19T15:48:44.349Z,102501.66
2022-10-19T15:51:33.057Z,102494.88
2022-10-19T15:54:05.601Z,102492.50
2022-10-19T15:56:36.816Z,102488.34
2022-10-19T15:59:06.504Z,102484.22
2022-10-19T16:01:34.379Z,102487.91
2022-10-19T16:04:01.041Z,102473.28
2022-10-19T16:06:33.095Z,102467.41
2022-10-19T16:09:00.721Z,102466.75
2022-10-19T16:11:28.967Z,102464.28
2022-10-19T16:13:55.481Z,102459.25
2022-10-19T16:16:26.741Z,102455.06
2022-10-19T16:18:54.550Z,102447.50
2022-10-19T16:21:24.284Z,102448.56
2022-10-19T16:23:50.752Z,102442.69
2022-10-19T16:26:19.621Z,102441.94
2022-10-19T16:28:46.079Z,102440.34
2022-10-19T16:31:12.510Z,102435.34
2022-10-19T16:33:39.021Z,102441.63
2022-10-19T16:36:07.337Z,102441.72
2022-10-19T16:38:34.890Z,102444.50
2022-10-19T16:41:09.009Z,102449.84
2022-10-19T16:43:36.355Z,102450.88
2022-10-19T16:46:03.915Z,102452.72
2022-10-19T16:48:30.679Z,102444.16
2022-10-19T16:51:06.499Z,102442.53
2022-10-19T16:53:33.694Z,102439.19
2022-10-19T16:56:08.916Z,102435.78
2022-10-19T16:58:37.210Z,102439.31
2022-10-19T17:01:11.772Z,102427.28
2022-10-19T17:03:38.372Z,102423.09
2022-10-19T17:06:07.066Z,102420.56
2022-10-19T17:08:37.084Z,102415.44
2022-10-19T17:11:20.653Z,102413.84
2022-10-19T17:13:49.405Z,102415.66
2022-10-19T17:16:18.276Z,102415.75
2022-10-19T17:18:45.075Z,102406.28
2022-10-19T17:21:14.823Z,102410.69
2022-10-19T17:23:42.015Z,102411.59
2022-10-19T17:26:09.228Z,102408.25
2022-10-19T17:28:36.928Z,102403.06
2022-10-19T17:31:05.785Z,102400.53
2022-10-19T17:33:32.625Z,102402.41
2022-10-19T17:36:08.498Z,102394.66
2022-10-19T17:38:36.428Z,102388.66
2022-10-19T17:41:14.602Z,102394.91
2022-10-19T17:43:45.858Z,102395.84
2022-10-19T17:46:14.274Z,102404.53
2022-10-19T17:48:42.840Z,102389.91
2022-10-19T17:51:15.896Z,102403.00
2022-10-19T17:53:46.157Z,102396.97
2022-10-19T17:56:15.726Z,102398.78
2022-10-19T17:58:42.590Z,102391.00
2022-10-19T18:01:11.077Z,102391.09
2022-10-19T18:03:38.773Z,102389.50
2022-10-19T18:06:10.792Z,102388.63
2022-10-19T18:08:43.247Z,102393.84
2022-10-19T18:11:15.958Z,102404.31
2022-10-19T18:13:43.133Z,102407.84
2022-10-19T18:16:12.885Z,102414.91
2022-10-19T18:18:41.947Z,102415.81
2022-10-19T18:21:13.506Z,102412.34
2022-10-19T18:23:40.325Z,102416.69
2022-10-19T18:26:10.649Z,102414.06
2022-10-19T18:28:37.667Z,102404.63
2022-10-19T18:31:08.841Z,102403.81
2022-10-19T18:33:36.084Z,102408.25
2022-10-19T18:36:04.099Z,102399.63
2022-10-19T18:38:30.713Z,102396.16
2022-10-19T18:41:05.589Z,102389.28
2022-10-19T18:43:32.180Z,102385.06
2022-10-19T18:46:00.211Z,102374.72
2022-10-19T18:48:29.229Z,102373.09
2022-10-19T18:50:57.228Z,102361.03
2022-10-19T18:53:24.152Z,102360.28
2022-10-19T18:56:07.390Z,102360.28
2022-10-19T18:58:34.824Z,102362.09
2022-10-19T19:01:04.193Z,102359.50
2022-10-19T19:03:30.967Z,102355.31
2022-10-19T19:06:05.864Z,102358.00
2022-10-19T19:08:32.536Z,102360.59
2022-10-19T19:11:15.961Z,102358.06
2022-10-19T19:13:51.015Z,102365.06
2022-10-19T19:16:17.704Z,102348.59
2022-10-19T19:18:44.186Z,102339.94
2022-10-19T19:21:22.677Z,102335.66
2022-10-19T19:23:50.327Z,102332.28
2022-10-19T19:26:17.954Z,102337.50
2022-10-19T19:28:49.060Z,102341.03
2022-10-19T19:31:18.955Z,102322.84
2022-10-19T19:33:46.979Z,102306.44
2022-10-19T19:36:15.577Z,102307.38
2022-10-19T19:38:42.543Z,102292.72
2022-10-19T19:41:12.900Z,102284.94
2022-10-19T19:43:39.477Z,102281.66
2022-10-19T19:46:12.528Z,102273.09
2022-10-19T19:48:41.112Z,102268.88
2022-10-19T19:51:09.181Z,102271.56
2022-10-19T19:53:36.895Z,102262.94
2022-10-19T19:56:03.792Z,102254.38
2022-10-19T19:58:30.188Z,102252.75
2022-10-19T20:00:56.590Z,102251.06
2022-10-19T20:03:23.028Z,102245.94
2022-10-19T20:05:49.433Z,102245.13
2022-10-19T20:08:15.849Z,102252.19
2022-10-19T20:10:43.541Z,102244.44
2022-10-19T20:13:09.914Z,102241.06
2022-10-19T20:15:39.629Z,102235.88
2022-10-19T20:18:06.427Z,102228.97
2022-10-19T20:20:32.912Z,102219.56
2022-10-19T20:22:59.392Z,102225.66
2022-10-19T20:25:25.852Z,102220.53
2022-10-19T20:27:52.236Z,102225.78
2022-10-19T20:30:18.720Z,102220.66
2022-10-19T20:32:45.126Z,102236.28
2022-10-19T20:35:11.553Z,102220.72
2022-10-19T20:37:37.953Z,102213.84
2022-10-19T20:40:08.519Z,102214.75
2022-10-19T20:42:35.863Z,102197.47
2022-10-19T20:45:02.668Z,102202.69
2022-10-19T20:47:29.462Z,102197.59
2022-10-19T20:49:55.880Z,102196.75
2022-10-19T20:52:22.323Z,102188.16
2022-10-19T20:54:49.282Z,102192.59
2022-10-19T20:57:15.741Z,102190.06
2022-10-19T20:59:43.831Z,102181.50
2022-10-19T21:02:11.481Z,102186.72
2022-10-19T21:04:37.949Z,102186.78
2022-10-19T21:07:05.008Z,102179.91
2022-10-19T21:09:31.883Z,102178.25
2022-10-19T21:11:58.585Z,102180.91
2022-10-19T21:14:28.383Z,102179.22
2022-10-19T21:16:57.327Z,102181.00
2022-10-19T21:19:25.781Z,102171.56
2022-10-19T21:21:57.868Z,102182.84
2022-10-19T21:24:26.978Z,102177.69
2022-10-19T21:26:54.076Z,102177.78
2022-10-19T21:29:20.593Z,102179.53
2022-10-19T21:31:49.422Z,102176.94
2022-10-19T21:34:25.338Z,102177.03
2022-10-19T21:36:52.268Z,102169.31
2022-10-19T21:39:19.554Z,102172.91
2022-10-19T21:41:46.703Z,102176.41
2022-10-19T21:44:14.749Z,102173.06
2022-10-19T21:46:43.466Z,102171.44
2022-10-19T21:49:13.041Z,102166.31
2022-10-19T21:51:43.628Z,102166.38
2022-10-19T21:54:15.948Z,102159.56
2022-10-19T21:56:43.227Z,102156.13
2022-10-19T21:59:09.773Z,102168.34
2022-10-19T22:01:40.163Z,102162.31
2022-10-19T22:04:11.732Z,102152.00
2022-10-19T22:06:38.252Z,102147.78
2022-10-19T22:09:06.857Z,102137.41
2022-10-19T22:11:34.071Z,102137.47
2022-10-19T22:14:02.530Z,102134.03
2022-10-19T22:16:30.083Z,102125.44
2022-10-19T22:18:57.276Z,102129.75
2022-10-19T22:21:26.902Z,102129.81
2022-10-19T22:23:56.495Z,102134.19
2022-10-19T22:26:29.031Z,102126.44
2022-10-19T22:28:57.122Z,102129.06
2022-10-19T22:31:24.890Z,102118.72
2022-10-19T22:33:51.364Z,102113.56
2022-10-19T22:36:18.363Z,102110.09
2022-10-19T22:38:45.092Z,102108.47
2022-10-19T22:42:07.609Z,102099.88
2022-10-19T22:44:34.058Z,102093.84
2022-10-19T22:47:00.495Z,102089.56
2022-10-19T22:49:26.898Z,102091.28
2022-10-19T22:51:53.296Z,102084.38
2022-10-19T22:54:19.728Z,102076.66
2022-10-19T22:56:46.251Z,102078.34
2022-10-19T22:59:12.795Z,102063.69
2022-10-19T23:01:39.315Z,102062.91
2022-10-19T23:04:06.132Z,102057.72
2022-10-19T23:06:32.901Z,102068.16
2022-10-19T23:08:59.370Z,102058.72
2022-10-19T23:11:25.819Z,102054.44
2022-10-19T23:13:52.269Z,102048.44
2022-10-19T23:16:18.761Z,102048.44
2022-10-19T23:18:45.253Z,102051.91
2022-10-19T23:21:13.277Z,102051.13
2022-10-19T23:23:40.222Z,102045.06
2022-10-19T23:26:12.915Z,102038.16
2022-10-19T23:28:40.967Z,102039.91
2022-10-19T23:31:10.673Z,102035.63
2022-10-19T23:33:37.306Z,102030.44
2022-10-19T23:36:11.426Z,102030.44
2022-10-19T23:38:37.868Z,102021.81
2022-10-19T23:41:04.721Z,102009.69
2022-10-19T23:43:31.584Z,102016.63
2022-10-19T23:45:58.124Z,102007.16
2022-10-19T23:48:25.287Z,102004.56
2022-10-19T23:50:59.584Z,102012.38
2022-10-19T23:53:26.459Z,102008.91
2022-10-19T23:55:58.948Z,101997.75
2022-10-19T23:58:25.479Z,101997.75
